Huntsville Municipal Airport Huntsville US
ICAO: KUTS
IATA: UTS
Category: Medium
Scheduled Services: No

Elevation: 363 ft
TransAlt. 18000 ft.

Airport Communications:
ASOS:119.425
HOUSTON CNTR:134.8
MONTGOMERY CO RDO:122.3
CTAF/UNICOM:122.8

KUTS Zoom In..

If you have problems with the map follow the link
https://www.worldairports.se/pages/airport.php?
ICAO=KUTS

Runways:

(A) RW 18 length 5005 ft width 100 ft
---- / hdg 180

(B) RW 36 length 5005 ft width 100 ft
---- / hdg 360

Location; KUTS
Day. 18 / Time. 22.10 Zulu
* Altimeter: 29.81
* Temperature: 17° c. 62.6°f.
* Wind from: 160° Speed 08 kn.
Dewpoint: 17° c.
Visibility: 2 Statute Miles.
Clouds: Broken 600 ft.
Clouds: Overcast 1500 ft.
Conditions: Light Rain.Conditions: Mist.

KUTS 182210Z AUTO 16008KT 2SM -RA BR BKN006 OVC015 17/17 A2981 RMK AO2 RAB01 P0001 T01720172


Wind From 160°
Speed 08 kn.

 
 
jpsmedia.com for Web Design worldairports.se 2019   terms of use